메인 페이지
METAR-TAF:

METAR-TAF

공항 :

캘거리 국제공항

캘거리, 앨버타, 캐나다

위도: 51-07N, 경도: 114-01W, 고도: 1077m

현재 날씨관측

예보는 22분 전, 17:00시(UTC)에 발표되었습니다.
남서4kt
온도 -6°C
습도 79%
기압 1007 hPa
시정: 64.4km
고도 3000ft 상공 구름 조금
고도 4500ft 상공 구름 많음
고도 10000ft 상공 구름 많음

METAR: CYYC 141700Z 22004KT 40SM FEW030 BKN045 BKN100 M06/M09 A2975 RMK SC2SC3AC2 SLP148

시각: 10:22 (17:22 UTC)

예보

예보는 2 시간 41분 전, 14:41시(UTC)에 발표되었습니다.
예보 대상 시간: 14일 15시부터 15일 12시까지 (UTC)
5kt
시정: 10km
고도 2000ft 상공 구름 보통
고도 6000ft 상공 구름 많음
일시적
14일 15시부터 14일 21시까지 (UTC)
시정: 6.4km
고도 2000ft 상공 구름 많음
고도 6000ft 상공 흐림
약한소낙눈, 박무
14일 2200시부터 (UTC)
8kt
시정: 10km
고도 8000ft 상공 구름 보통
전환 중
14일 22시부터 14일 24시까지 (UTC)
북북서8kt
15일 0500시부터 (UTC)
북서5kt
시정: 10km
고도 4000ft 상공 구름 조금

TAF: CYYC 141441Z 1415/1512 26005KT P6SM SCT020 BKN060 TEMPO 1415/1421 4SM -SHSN BR BKN020 OVC060 FM142200 28008KT P6SM SCT080 BECMG 1422/1424 34008KT FM150500 32005KT P6SM FEW040 RMK NXT FCST BY 141800Z

4,000개 이상의 공항 관측 자료 및 예보 (METAR 및 TAF 보고).

지도상에서 검색 가능한 기상관측소가 노란 점과 빨간 점으로 표시되어 있습니다.

기상관측소 명을 보려면 표시 위로 마우스를 이동하세요.

날씨 관측과 예보를 보려면 클릭하세요.

지도 변경 : 확대하려면 엑스 표시가 있는 녹색 버튼, 축소하려면 빼기 표시가 있는 녹색 버튼, 다음 페이지의 지도를 보려면 녹색 화살표를 클릭하세요.


METAR-TAF: